createdAt,value
2023-04-28T00:01:10.222Z,6.97
2023-04-28T00:06:13.952Z,4.57
2023-04-28T00:11:17.450Z,5.70
2023-04-28T00:16:23.745Z,7.07
2023-04-28T00:21:28.999Z,5.90
2023-04-28T00:26:32.501Z,5.17
2023-04-28T00:31:37.837Z,4.73
2023-04-28T00:36:41.394Z,3.93
2023-04-28T00:41:45.838Z,7.30
2023-04-28T00:46:52.195Z,5.93
2023-04-28T00:51:56.349Z,8.73
2023-04-28T00:57:00.960Z,6.17
2023-04-28T01:02:07.977Z,5.43
2023-04-28T01:07:13.100Z,7.10
2023-04-28T01:12:17.951Z,8.07
2023-04-28T01:17:23.232Z,7.57
2023-04-28T01:22:26.844Z,8.37
2023-04-28T01:27:36.778Z,5.70
2023-04-28T01:32:40.590Z,6.73
2023-04-28T01:37:44.903Z,6.27
2023-04-28T01:42:49.813Z,8.10
2023-04-28T01:47:53.029Z,5.77
2023-04-28T01:52:57.802Z,6.20
2023-04-28T01:58:04.289Z,6.30
2023-04-28T02:03:07.748Z,6.67
2023-04-28T02:08:12.479Z,7.40
2023-04-28T02:13:18.674Z,5.20
2023-04-28T02:18:22.679Z,7.10
2023-04-28T02:23:26.320Z,7.03
2023-04-28T02:28:31.393Z,9.73
2023-04-28T02:33:35.398Z,8.13
2023-04-28T02:38:38.945Z,12.33
2023-04-28T02:43:44.422Z,12.37
2023-04-28T02:48:48.111Z,9.80
2023-04-28T02:53:52.048Z,8.23
2023-04-28T02:58:57.085Z,10.40
2023-04-28T03:04:00.764Z,7.80
2023-04-28T03:09:05.007Z,6.50
2023-04-28T03:14:09.827Z,8.57
2023-04-28T03:19:13.612Z,7.80
2023-04-28T03:24:17.751Z,10.07
2023-04-28T03:29:25.718Z,8.80
2023-04-28T03:34:29.317Z,9.87
2023-04-28T03:39:34.820Z,7.93
2023-04-28T03:44:40.378Z,9.60
2023-04-28T03:49:44.226Z,10.40
2023-04-28T03:54:47.915Z,7.30
2023-04-28T03:59:53.177Z,9.57
2023-04-28T04:04:57.044Z,8.53
2023-04-28T04:10:03.916Z,11.00
2023-04-28T04:15:11.318Z,8.97
2023-04-28T04:20:15.036Z,7.60
2023-04-28T04:25:23.512Z,9.30
2023-04-28T04:30:28.759Z,10.47
2023-04-28T04:35:34.413Z,14.00
2023-04-28T04:40:38.398Z,7.90
2023-04-28T04:45:43.596Z,9.87
2023-04-28T04:50:47.105Z,11.07
2023-04-28T04:55:52.775Z,10.33
2023-04-28T05:00:57.968Z,8.67
2023-04-28T05:06:04.233Z,9.73
2023-04-28T05:11:10.257Z,8.67
2023-04-28T05:16:27.035Z,10.17
2023-04-28T05:21:30.574Z,8.93
2023-04-28T05:26:37.833Z,8.40
2023-04-28T05:31:55.501Z,11.10
2023-04-28T05:36:59.456Z,10.57
2023-04-28T05:42:07.352Z,9.97
2023-04-28T05:47:15.106Z,9.50
2023-04-28T05:52:21.342Z,6.83
2023-04-28T05:57:24.687Z,11.77
2023-04-28T06:02:33.931Z,8.30
2023-04-28T06:07:37.557Z,7.57
2023-04-28T06:12:40.900Z,9.52
2023-04-28T06:17:45.959Z,7.88
2023-04-28T06:22:49.451Z,7.85
2023-04-28T06:27:53.606Z,9.45
2023-04-28T06:33:00.305Z,9.80
2023-04-28T06:38:04.927Z,10.20
2023-04-28T06:43:08.465Z,9.18
2023-04-28T06:48:15.520Z,11.13
2023-04-28T06:53:23.141Z,11.82
2023-04-28T06:58:27.046Z,9.13
2023-04-28T07:03:35.100Z,9.35
2023-04-28T07:08:39.186Z,12.48
2023-04-28T07:13:42.839Z,11.80
2023-04-28T07:18:47.820Z,9.00
2023-04-28T07:23:51.937Z,12.20
2023-04-28T07:28:55.417Z,10.00
2023-04-28T07:34:13.295Z,8.65
2023-04-28T07:39:17.028Z,11.77
2023-04-28T07:44:20.779Z,11.52
2023-04-28T07:49:26.362Z,8.50
2023-04-28T07:54:29.666Z,10.85
2023-04-28T07:59:33.690Z,11.60
2023-04-28T08:04:40.120Z,8.75
2023-04-28T08:09:47.367Z,7.03
2023-04-28T08:14:50.953Z,8.80
2023-04-28T08:19:56.279Z,10.25
2023-04-28T08:25:00.212Z,6.35
2023-04-28T08:30:04.689Z,7.57
2023-04-28T08:35:11.941Z,10.77
2023-04-28T08:40:15.599Z,11.75
2023-04-28T08:45:18.970Z,7.03
2023-04-28T08:50:25.005Z,7.35
2023-04-28T08:55:28.911Z,9.75
2023-04-28T09:00:33.355Z,7.57
2023-04-28T09:05:38.243Z,6.03
2023-04-28T09:10:43.201Z,8.23
2023-04-28T09:15:46.555Z,8.35
2023-04-28T09:20:52.268Z,5.07
2023-04-28T09:26:01.078Z,10.15
2023-04-28T09:31:05.145Z,6.80
2023-04-28T09:36:10.770Z,8.20
2023-04-28T09:41:14.101Z,6.75
2023-04-28T09:46:30.574Z,9.57
2023-04-28T09:51:35.899Z,8.80
2023-04-28T09:56:41.391Z,11.13
2023-04-28T10:01:46.881Z,7.95
2023-04-28T10:06:52.271Z,8.68
2023-04-28T10:11:56.156Z,12.13
2023-04-28T10:17:00.953Z,8.20
2023-04-28T10:22:22.772Z,6.50
2023-04-28T10:27:32.117Z,9.02
2023-04-28T10:32:35.376Z,8.43
2023-04-28T10:38:10.450Z,7.20
2023-04-28T10:43:15.153Z,9.05
2023-04-28T10:48:18.461Z,9.77
2023-04-28T10:53:23.430Z,9.43
2023-04-28T10:58:42.303Z,9.88
2023-04-28T11:03:51.972Z,8.15
2023-04-28T11:09:00.693Z,9.10
2023-04-28T11:14:32.896Z,8.80
2023-04-28T11:19:38.223Z,7.40
2023-04-28T11:24:56.471Z,7.80
2023-04-28T11:30:02.343Z,6.95
2023-04-28T11:35:10.139Z,8.85
2023-04-28T11:40:19.438Z,6.35
2023-04-28T11:45:23.148Z,8.15
2023-04-28T11:50:37.342Z,5.97
2023-04-28T11:55:42.475Z,7.03
2023-04-28T12:00:47.555Z,6.15
2023-04-28T12:05:51.731Z,7.57
2023-04-28T12:16:39.467Z,8.30
2023-04-28T12:21:44.016Z,8.45
2023-04-28T12:26:48.206Z,9.20
2023-04-28T12:31:54.161Z,6.07
2023-04-28T12:36:57.868Z,7.13
2023-04-28T12:42:03.092Z,7.82
2023-04-28T12:47:09.323Z,6.13
2023-04-28T12:52:12.784Z,6.60
2023-04-28T12:57:17.015Z,5.90
2023-04-28T13:02:22.038Z,6.40
2023-04-28T13:07:26.756Z,8.80
2023-04-28T13:12:30.374Z,8.93
2023-04-28T13:17:35.520Z,5.57
2023-04-28T13:22:38.899Z,6.57
2023-04-28T13:27:43.489Z,5.03
2023-04-28T13:32:48.581Z,4.82
2023-04-28T13:37:56.782Z,5.88
2023-04-28T13:43:00.715Z,5.45
2023-04-28T13:48:06.038Z,5.25
2023-04-28T13:53:09.331Z,5.10
2023-04-28T13:58:12.573Z,6.05
2023-04-28T14:03:17.431Z,3.50
2023-04-28T14:08:23.255Z,4.35
2023-04-28T14:13:27.100Z,4.30
2023-04-28T14:18:33.853Z,4.22
2023-04-28T14:23:37.954Z,5.30
2023-04-28T14:28:45.068Z,8.85
2023-04-28T14:33:50.150Z,7.22
2023-04-28T14:38:53.514Z,4.80
2023-04-28T14:43:56.882Z,6.22
2023-04-28T14:49:02.656Z,5.00
2023-04-28T14:54:06.577Z,3.53
2023-04-28T14:59:10.506Z,4.55
2023-04-28T15:04:16.954Z,5.65
2023-04-28T15:09:20.629Z,6.57
2023-04-28T15:14:23.790Z,5.47
2023-04-28T15:19:28.412Z,5.63
2023-04-28T15:24:35.775Z,5.90
2023-04-28T15:29:39.554Z,5.55
2023-04-28T15:34:44.511Z,5.03
2023-04-28T15:39:47.848Z,3.85
2023-04-28T15:44:51.590Z,5.47
2023-04-28T15:49:56.546Z,3.50
2023-04-28T15:55:00.985Z,3.97
2023-04-28T16:00:04.803Z,4.60
2023-04-28T16:05:20.107Z,4.72
2023-04-28T16:10:23.412Z,4.07
2023-04-28T16:15:26.998Z,4.20
2023-04-28T16:20:31.739Z,4.70
2023-04-28T16:25:35.439Z,4.07
2023-04-28T16:30:38.868Z,4.45
2023-04-28T16:35:44.783Z,3.40
2023-04-28T16:40:47.978Z,5.60
2023-04-28T16:45:51.157Z,6.45
2023-04-28T16:50:56.865Z,3.95
2023-04-28T16:55:59.967Z,4.18
2023-04-28T17:01:06.795Z,5.43
2023-04-28T17:06:12.454Z,5.57
2023-04-28T17:11:18.908Z,4.65
2023-04-28T17:16:22.416Z,5.65
2023-04-28T17:21:29.298Z,5.60
2023-04-28T17:26:33.763Z,5.18
2023-04-28T17:31:38.939Z,7.60
2023-04-28T17:36:44.460Z,7.25
2023-04-28T17:41:47.804Z,6.03
2023-04-28T17:46:52.231Z,6.18
2023-04-28T17:52:02.446Z,5.88
2023-04-28T17:57:06.172Z,5.50
2023-04-28T18:02:11.290Z,5.60
2023-04-28T18:07:16.586Z,6.70
2023-04-28T18:12:19.874Z,6.25
2023-04-28T18:17:23.387Z,5.18
2023-04-28T18:22:28.134Z,6.40
2023-04-28T18:27:34.308Z,5.70
2023-04-28T18:32:37.733Z,6.97
2023-04-28T18:37:46.166Z,10.02
2023-04-28T18:42:49.796Z,5.72
2023-04-28T18:47:53.081Z,6.70
2023-04-28T18:52:57.889Z,6.38
2023-04-28T18:58:02.382Z,5.93
2023-04-28T19:03:05.910Z,6.60
2023-04-28T19:08:12.006Z,8.77
2023-04-28T19:13:15.465Z,7.30
2023-04-28T19:18:19.479Z,8.38
2023-04-28T19:23:24.365Z,9.57
2023-04-28T19:28:29.297Z,7.32
2023-04-28T19:33:32.954Z,7.55
2023-04-28T19:38:40.457Z,7.63
2023-04-28T19:43:44.277Z,7.55
2023-04-28T19:48:47.762Z,7.88
2023-04-28T19:53:52.640Z,7.70
2023-04-28T19:58:55.980Z,7.40
2023-04-28T20:04:00.583Z,8.07
2023-04-28T20:09:06.045Z,8.10
2023-04-28T20:14:09.768Z,7.40
2023-04-28T20:19:12.907Z,8.82
2023-04-28T20:24:17.494Z,8.80
2023-04-28T20:29:20.813Z,8.10
2023-04-28T20:34:24.091Z,8.52
2023-04-28T20:39:29.516Z,9.60
2023-04-28T20:44:32.861Z,9.73
2023-04-28T20:49:36.561Z,10.63
2023-04-28T20:54:43.627Z,10.15
2023-04-28T20:59:46.867Z,10.18
2023-04-28T21:04:50.304Z,10.30
2023-04-28T21:09:54.902Z,10.30
2023-04-28T21:14:59.642Z,11.73
2023-04-28T21:20:03.601Z,9.98
2023-04-28T21:25:09.569Z,10.50
2023-04-28T21:30:14.762Z,11.73
2023-04-28T21:35:18.227Z,10.32
2023-04-28T21:40:23.121Z,9.82
2023-04-28T21:45:26.668Z,10.18
2023-04-28T21:50:29.944Z,10.23
2023-04-28T21:55:34.540Z,10.77
2023-04-28T22:00:40.978Z,10.23
2023-04-28T22:05:45.474Z,9.93
2023-04-28T22:10:50.086Z,10.65
2023-04-28T22:15:53.838Z,10.32
2023-04-28T22:20:57.116Z,10.05
2023-04-28T22:26:01.895Z,11.32
2023-04-28T22:31:05.219Z,10.80
2023-04-28T22:36:09.028Z,12.07
2023-04-28T22:41:13.617Z,13.95
2023-04-28T22:46:16.752Z,13.27
2023-04-28T22:51:20.429Z,12.90
2023-04-28T22:56:24.940Z,11.93
2023-04-28T23:01:28.209Z,11.55
2023-04-28T23:06:32.211Z,11.37
2023-04-28T23:11:36.735Z,9.85
2023-04-28T23:16:40.192Z,10.95
2023-04-28T23:21:43.346Z,11.15
2023-04-28T23:26:48.078Z,10.00
2023-04-28T23:31:54.684Z,9.85
2023-04-28T23:36:58.421Z,10.60
2023-04-28T23:42:03.106Z,11.90
2023-04-28T23:47:06.770Z,10.37
2023-04-28T23:52:09.971Z,11.50
2023-04-28T23:57:14.511Z,11.48
